createdAt,value
2024-01-05T00:07:03.667Z,81.90
2024-01-05T00:17:07.114Z,81.93
2024-01-05T00:27:11.686Z,81.89
2024-01-05T00:37:15.119Z,81.76
2024-01-05T00:47:19.619Z,81.78
2024-01-05T00:57:23.988Z,81.58
2024-01-05T01:07:28.424Z,81.82
2024-01-05T01:17:31.915Z,81.73
2024-01-05T01:27:36.648Z,81.75
2024-01-05T01:37:39.919Z,81.67
2024-01-05T01:47:46.820Z,81.49
2024-01-05T01:57:50.474Z,81.88
2024-01-05T02:07:55.210Z,81.76
2024-01-05T02:17:58.424Z,81.98
2024-01-05T02:28:02.905Z,81.93
2024-01-05T02:38:07.326Z,81.74
2024-01-05T02:48:12.506Z,81.55
2024-01-05T02:58:15.912Z,81.65
2024-01-05T03:08:21.099Z,81.33
2024-01-05T03:18:25.285Z,81.01
2024-01-05T03:28:29.874Z,80.61
2024-01-05T03:38:32.827Z,80.87
2024-01-05T03:48:37.279Z,80.95
2024-01-05T03:58:40.434Z,80.74
2024-01-05T04:08:44.896Z,80.41
2024-01-05T04:18:48.200Z,80.73
2024-01-05T04:28:53.933Z,80.77
2024-01-05T04:38:57.084Z,80.69
2024-01-05T04:49:01.664Z,80.39
2024-01-05T04:59:04.694Z,80.58
2024-01-05T05:09:11.203Z,80.76
2024-01-05T05:19:14.488Z,80.69
2024-01-05T05:29:19.833Z,80.70
2024-01-05T05:39:23.377Z,80.80
2024-01-05T05:49:28.106Z,80.91
2024-01-05T05:59:31.731Z,80.45
2024-01-05T06:09:36.291Z,80.54
2024-01-05T06:19:39.617Z,79.96
2024-01-05T06:29:45.184Z,79.99
2024-01-05T06:39:49.109Z,79.71
2024-01-05T06:49:54.627Z,78.68
2024-01-05T06:59:58.223Z,79.02
2024-01-05T07:10:32.253Z,78.73
2024-01-05T07:20:40.853Z,78.56
2024-01-05T07:30:45.702Z,78.01
2024-01-05T07:40:49.826Z,76.70
2024-01-05T07:51:01.648Z,76.13
2024-01-05T08:01:09.483Z,76.28
2024-01-05T08:47:39.891Z,72.78
2024-01-05T08:57:51.618Z,73.22
2024-01-05T09:07:56.473Z,74.37
2024-01-05T09:17:59.766Z,73.93
2024-01-05T09:28:07.572Z,73.25
2024-01-05T09:38:10.720Z,71.87
2024-01-05T09:48:19.995Z,72.22
2024-01-05T09:58:23.449Z,72.51
2024-01-05T10:08:27.984Z,72.32
2024-01-05T10:18:31.782Z,70.76
2024-01-05T10:28:39.450Z,70.54
2024-01-05T10:38:51.528Z,71.18
2024-01-05T10:49:14.742Z,72.26
2024-01-05T10:59:21.730Z,70.87
2024-01-05T11:09:37.813Z,71.34
2024-01-05T11:20:22.117Z,71.26
2024-01-05T11:30:42.185Z,71.68
2024-01-05T11:40:50.698Z,72.15
2024-01-05T12:14:59.137Z,72.30
2024-01-05T12:25:02.520Z,73.84
2024-01-05T12:35:08.552Z,73.78
2024-01-05T12:45:12.028Z,75.54
2024-01-05T12:55:29.882Z,75.75
2024-01-05T13:06:14.159Z,75.69
2024-01-05T13:16:34.890Z,76.54
2024-01-05T13:27:14.414Z,76.83
2024-01-05T13:37:55.546Z,77.12
2024-01-05T13:48:08.968Z,77.03
2024-01-05T13:58:41.874Z,77.42
2024-01-05T14:08:49.088Z,77.44
2024-01-05T14:19:07.309Z,77.15
2024-01-05T15:37:21.413Z,77.37
2024-01-05T15:51:14.008Z,77.48
2024-01-05T15:59:47.689Z,77.59
2024-01-05T16:10:09.048Z,77.57
2024-01-05T16:21:19.919Z,77.61
2024-01-05T16:31:56.663Z,77.71
2024-01-05T16:48:30.418Z,77.76
2024-01-05T17:04:41.428Z,78.02
2024-01-05T17:15:20.208Z,78.00
2024-01-05T17:45:27.776Z,78.06
2024-01-05T17:59:48.890Z,78.46
2024-01-05T18:30:55.472Z,78.53
2024-01-05T18:42:13.720Z,78.51
2024-01-05T18:44:05.474Z,78.54
2024-01-05T18:54:25.001Z,78.72
2024-01-05T19:05:52.023Z,78.66
2024-01-05T19:16:29.984Z,78.56
2024-01-05T19:27:46.124Z,78.44
2024-01-05T19:38:23.949Z,78.44
2024-01-05T19:48:32.708Z,78.32
2024-01-05T19:58:40.727Z,78.56
2024-01-05T20:08:43.945Z,78.49
2024-01-05T20:18:49.640Z,78.17
2024-01-05T20:28:52.966Z,78.23
2024-01-05T20:38:59.267Z,78.17
2024-01-05T20:49:04.069Z,77.84
2024-01-05T20:59:08.874Z,77.62
2024-01-05T21:09:13.432Z,77.73
2024-01-05T21:19:19.547Z,77.96
2024-01-05T21:29:25.228Z,78.04
2024-01-05T21:39:31.302Z,77.80
2024-01-05T21:49:37.147Z,77.95
2024-01-05T21:59:42.442Z,77.83
2024-01-05T22:09:48.438Z,77.79
2024-01-05T22:19:53.120Z,77.86
2024-01-05T22:29:56.300Z,77.76
2024-01-05T22:40:01.088Z,77.55
2024-01-05T22:50:05.344Z,77.79
2024-01-05T23:00:20.810Z,77.84
2024-01-05T23:10:27.605Z,77.89
2024-01-05T23:20:36.949Z,78.08
2024-01-05T23:30:43.458Z,77.97
2024-01-05T23:40:51.935Z,78.10
2024-01-05T23:50:55.403Z,78.11
